createdAt,value
2022-11-21T00:01:21.826Z,41.67
2022-11-21T00:03:49.125Z,36.43
2022-11-21T00:06:17.112Z,33.63
2022-11-21T00:08:45.326Z,42.13
2022-11-21T00:11:13.273Z,33.90
2022-11-21T00:13:41.063Z,36.23
2022-11-21T00:16:12.362Z,30.97
2022-11-21T00:18:39.679Z,34.73
2022-11-21T00:21:16.346Z,39.00
2022-11-21T00:23:45.072Z,39.70
2022-11-21T00:26:14.442Z,33.17
2022-11-21T00:28:41.864Z,41.33
2022-11-21T00:31:09.086Z,35.43
2022-11-21T00:33:37.040Z,34.33
2022-11-21T00:36:09.395Z,31.87
2022-11-21T00:38:37.661Z,39.70
2022-11-21T00:41:06.288Z,39.03
2022-11-21T00:43:33.665Z,31.47
2022-11-21T00:46:02.780Z,35.17
2022-11-21T00:48:31.941Z,31.63
2022-11-21T00:51:00.670Z,39.57
2022-11-21T00:53:28.674Z,30.27
2022-11-21T00:55:55.918Z,35.10
2022-11-21T00:58:23.163Z,36.43
2022-11-21T01:00:50.341Z,32.77
2022-11-21T01:03:17.612Z,32.23
2022-11-21T01:05:44.685Z,32.80
2022-11-21T01:08:11.746Z,33.37
2022-11-21T01:10:38.772Z,27.67
2022-11-21T01:13:06.152Z,34.47
2022-11-21T01:15:34.787Z,33.37
2022-11-21T01:18:01.825Z,31.23
2022-11-21T01:20:28.958Z,30.00
2022-11-21T01:22:56.020Z,33.60
2022-11-21T01:25:23.186Z,33.37
2022-11-21T01:27:50.235Z,30.07
2022-11-21T01:30:17.489Z,31.90
2022-11-21T01:32:50.109Z,34.43
2022-11-21T01:35:18.816Z,37.37
2022-11-21T01:37:49.666Z,30.17
2022-11-21T01:40:17.344Z,32.80
2022-11-21T01:43:15.392Z,30.07
2022-11-21T01:45:56.572Z,31.93
2022-11-21T01:48:38.155Z,33.40
2022-11-21T01:51:39.714Z,28.00
2022-11-21T01:54:13.284Z,30.10
2022-11-21T01:57:10.120Z,31.40
2022-11-21T01:59:55.111Z,26.53
2022-11-21T02:02:29.517Z,28.87
2022-11-21T02:04:57.693Z,31.23
2022-11-21T02:07:26.572Z,31.23
2022-11-21T02:09:59.103Z,25.57
2022-11-21T02:12:46.006Z,35.73
2022-11-21T02:15:23.074Z,26.00
2022-11-21T02:17:50.494Z,28.63
2022-11-21T02:20:21.393Z,26.77
2022-11-21T02:23:12.881Z,28.77
2022-11-21T02:25:42.934Z,28.40
2022-11-21T02:28:15.416Z,34.17
2022-11-21T02:30:43.671Z,32.80
2022-11-21T02:33:12.296Z,27.03
2022-11-21T02:35:40.171Z,30.30
2022-11-21T02:38:22.791Z,25.50
2022-11-21T02:41:07.839Z,25.47
2022-11-21T02:43:40.344Z,31.00
2022-11-21T02:46:07.395Z,28.47
2022-11-21T02:48:36.259Z,27.73
2022-11-21T02:51:03.371Z,25.17
2022-11-21T02:53:30.435Z,27.07
2022-11-21T02:55:57.820Z,26.00
2022-11-21T02:58:25.009Z,26.37
2022-11-21T03:00:52.169Z,28.57
2022-11-21T03:03:19.268Z,25.77
2022-11-21T03:05:46.378Z,26.53
2022-11-21T03:08:13.401Z,31.63
2022-11-21T03:10:40.543Z,24.50
2022-11-21T03:13:07.901Z,24.83
2022-11-21T03:15:35.856Z,25.50
2022-11-21T03:18:04.056Z,27.53
2022-11-21T03:20:33.605Z,28.27
2022-11-21T03:23:01.066Z,30.20
2022-11-21T03:25:28.662Z,29.90
2022-11-21T03:27:55.852Z,30.03
2022-11-21T03:30:27.579Z,27.23
2022-11-21T03:32:58.822Z,28.93
2022-11-21T03:35:26.569Z,32.90
2022-11-21T03:37:53.868Z,34.37
2022-11-21T03:40:21.022Z,41.17
2022-11-21T03:42:48.042Z,43.83
2022-11-21T03:45:15.096Z,28.03
2022-11-21T03:47:42.401Z,26.50
2022-11-21T03:50:10.735Z,26.77
2022-11-21T03:52:37.773Z,19.80
2022-11-21T03:55:05.294Z,18.70
2022-11-21T03:57:32.362Z,18.63
2022-11-21T03:59:59.389Z,16.03
2022-11-21T04:02:26.415Z,19.00
2022-11-21T04:04:53.623Z,20.20
2022-11-21T04:07:20.774Z,18.70
2022-11-21T04:09:47.837Z,17.20
2022-11-21T04:12:14.894Z,17.10
2022-11-21T04:14:41.887Z,16.47
2022-11-21T04:17:09.225Z,14.77
2022-11-21T04:19:36.288Z,17.70
2022-11-21T04:22:03.463Z,15.13
2022-11-21T04:24:30.768Z,16.63
2022-11-21T04:26:58.008Z,12.90
2022-11-21T04:29:25.060Z,13.73
2022-11-21T04:31:52.284Z,16.53
2022-11-21T04:34:19.369Z,21.63
2022-11-21T04:36:46.541Z,15.33
2022-11-21T04:39:13.690Z,14.10
2022-11-21T04:41:40.700Z,18.87
2022-11-21T04:44:07.919Z,13.60
2022-11-21T04:46:34.963Z,18.10
2022-11-21T04:49:02.106Z,13.80
2022-11-21T04:51:29.225Z,13.17
2022-11-21T04:53:56.277Z,14.30
2022-11-21T04:56:23.317Z,15.07
2022-11-21T04:58:53.426Z,15.20
2022-11-21T05:01:20.581Z,12.60
2022-11-21T05:03:47.702Z,15.57
2022-11-21T05:06:14.793Z,17.07
2022-11-21T05:08:41.914Z,18.03
2022-11-21T05:11:27.651Z,13.87
2022-11-21T05:13:55.330Z,14.68
2022-11-21T05:16:22.456Z,22.83
2022-11-21T05:18:49.646Z,31.37
2022-11-21T05:21:16.726Z,42.90
2022-11-21T05:23:43.756Z,27.17
2022-11-21T05:26:10.842Z,18.97
2022-11-21T05:28:37.973Z,11.37
2022-11-21T05:31:05.078Z,13.87
2022-11-21T05:33:32.164Z,11.70
2022-11-21T05:35:59.189Z,13.07
2022-11-21T05:38:26.230Z,13.27
2022-11-21T05:40:53.472Z,11.53
2022-11-21T05:43:39.012Z,9.43
2022-11-21T05:46:06.228Z,12.02
2022-11-21T05:48:34.360Z,10.07
2022-11-21T05:51:01.356Z,9.97
2022-11-21T05:53:28.451Z,11.00
2022-11-21T05:55:55.511Z,5.97
2022-11-21T05:58:41.690Z,10.57
2022-11-21T06:03:40.262Z,8.67
2022-11-21T06:06:14.187Z,10.60
2022-11-21T06:08:44.893Z,11.03
2022-11-21T06:11:15.512Z,11.80
2022-11-21T06:13:43.176Z,14.67
2022-11-21T06:16:13.842Z,8.47
2022-11-21T06:18:46.923Z,10.07
2022-11-21T06:21:23.612Z,9.77
2022-11-21T06:23:53.655Z,5.63
2022-11-21T06:26:23.973Z,12.17
2022-11-21T06:28:51.684Z,7.80
2022-11-21T06:31:22.964Z,10.52
2022-11-21T06:33:56.066Z,8.87
2022-11-21T06:36:23.873Z,9.57
2022-11-21T06:38:54.459Z,7.10
2022-11-21T06:41:26.218Z,6.00
2022-11-21T06:43:53.560Z,8.00
2022-11-21T06:46:20.668Z,6.07
2022-11-21T06:48:47.803Z,6.88
2022-11-21T06:51:18.609Z,3.58
2022-11-21T06:53:46.769Z,6.53
2022-11-21T06:56:15.402Z,4.13
2022-11-21T06:58:42.536Z,4.53
2022-11-21T07:01:11.065Z,6.10
2022-11-21T07:03:38.407Z,7.97
2022-11-21T07:06:07.061Z,4.63
2022-11-21T07:08:36.160Z,6.30
2022-11-21T07:13:53.746Z,9.05
2022-11-21T07:16:20.948Z,6.97
2022-11-21T07:18:48.181Z,5.63
2022-11-21T07:21:15.467Z,4.57
2022-11-21T07:23:42.632Z,5.25
2022-11-21T07:26:11.217Z,5.22
2022-11-21T07:28:38.785Z,4.95
2022-11-21T07:31:12.989Z,7.10
2022-11-21T07:33:41.035Z,6.78
2022-11-21T07:36:08.165Z,9.15
2022-11-21T07:38:36.564Z,8.20
2022-11-21T07:41:03.710Z,10.30
2022-11-21T07:43:30.756Z,9.82
2022-11-21T07:45:57.842Z,7.60
2022-11-21T07:48:24.917Z,8.00
2022-11-21T07:50:51.999Z,5.82
2022-11-21T07:53:19.132Z,7.63
2022-11-21T07:55:46.192Z,5.78
2022-11-21T07:58:16.926Z,5.75
2022-11-21T08:00:44.196Z,5.60
2022-11-21T08:03:13.147Z,4.75
2022-11-21T08:05:43.110Z,5.95
2022-11-21T08:08:14.392Z,5.32
2022-11-21T08:10:45.528Z,4.57
2022-11-21T08:13:13.781Z,5.97
2022-11-21T08:15:41.046Z,5.47
2022-11-21T08:18:15.051Z,6.03
2022-11-21T08:20:43.036Z,9.70
2022-11-21T08:23:11.039Z,3.65
2022-11-21T08:25:39.937Z,6.82
2022-11-21T08:28:09.307Z,6.65
2022-11-21T08:30:37.316Z,5.90
2022-11-21T08:33:05.078Z,5.57
2022-11-21T08:35:32.395Z,6.95
2022-11-21T08:38:01.105Z,10.20
2022-11-21T08:40:31.445Z,10.52
2022-11-21T08:43:09.707Z,10.70
2022-11-21T08:45:38.570Z,4.75
2022-11-21T08:48:12.422Z,6.82
2022-11-21T08:50:39.908Z,6.20
2022-11-21T08:53:07.056Z,8.43
2022-11-21T08:55:34.075Z,11.15
2022-11-21T08:58:01.210Z,9.95
2022-11-21T09:00:28.261Z,5.30
2022-11-21T09:02:55.295Z,5.57
2022-11-21T09:05:22.628Z,6.30
2022-11-21T09:07:57.687Z,6.50
2022-11-21T09:10:26.550Z,5.55
2022-11-21T09:12:53.819Z,4.63
2022-11-21T09:15:56.097Z,4.32
2022-11-21T09:18:23.308Z,12.88
2022-11-21T09:20:50.560Z,5.88
2022-11-21T09:23:17.937Z,7.10
2022-11-21T09:25:45.415Z,4.30
2022-11-21T09:28:14.127Z,10.18
2022-11-21T09:30:43.048Z,9.40
2022-11-21T09:33:17.026Z,6.00
2022-11-21T09:35:44.500Z,4.45
2022-11-21T09:38:11.849Z,6.65
2022-11-21T09:40:46.196Z,6.82
2022-11-21T09:43:30.406Z,11.27
2022-11-21T09:46:15.501Z,4.25
2022-11-21T09:48:54.528Z,6.45
2022-11-21T09:51:22.545Z,8.32
2022-11-21T09:53:59.628Z,7.13
2022-11-21T09:56:27.596Z,10.82
2022-11-21T09:59:20.789Z,8.18
2022-11-21T10:01:48.352Z,11.27
2022-11-21T10:04:15.577Z,10.35
2022-11-21T10:07:07.585Z,8.10
2022-11-21T10:10:25.141Z,10.48
2022-11-21T10:13:13.094Z,6.13
2022-11-21T10:15:55.068Z,8.38
2022-11-21T10:19:00.258Z,5.18
2022-11-21T10:22:08.651Z,1.98
2022-11-21T10:25:03.245Z,7.03
2022-11-21T10:28:13.425Z,2.88
2022-11-21T10:30:46.141Z,2.67
2022-11-21T10:33:30.625Z,3.40
2022-11-21T10:36:29.876Z,2.95
2022-11-21T10:39:13.383Z,2.67
2022-11-21T10:42:10.402Z,4.90
2022-11-21T10:44:55.637Z,5.85
2022-11-21T10:47:28.142Z,6.63
2022-11-21T10:50:10.216Z,1.88
2022-11-21T10:52:50.904Z,2.60
2022-11-21T10:55:18.970Z,1.60
2022-11-21T10:57:48.067Z,3.28
2022-11-21T11:00:20.313Z,1.13
2022-11-21T11:02:56.497Z,2.25
2022-11-21T11:05:25.750Z,3.45
2022-11-21T11:08:13.640Z,3.92
2022-11-21T11:11:07.187Z,2.80
2022-11-21T11:14:04.088Z,2.17
2022-11-21T11:16:40.136Z,8.30
2022-11-21T11:19:14.374Z,1.67
2022-11-21T11:21:41.292Z,8.23
2022-11-21T11:24:11.098Z,1.95
2022-11-21T11:26:48.621Z,1.73
2022-11-21T11:29:21.545Z,2.63
2022-11-21T11:32:16.411Z,2.65
2022-11-21T11:35:09.311Z,2.13
2022-11-21T11:37:41.363Z,1.92
2022-11-21T11:40:24.225Z,5.93
2022-11-21T11:43:39.941Z,2.35
2022-11-21T11:47:19.398Z,2.25
2022-11-21T11:50:11.476Z,1.90
2022-11-21T11:53:07.605Z,1.33
2022-11-21T11:56:06.786Z,1.25
2022-11-21T11:58:42.741Z,2.47
2022-11-21T12:01:25.759Z,7.93
2022-11-21T12:04:21.018Z,0.90
2022-11-21T12:08:33.034Z,7.05
2022-11-21T12:10:28.620Z,1.35
2022-11-21T12:13:14.109Z,1.42
2022-11-21T12:15:50.904Z,1.00
2022-11-21T12:18:21.060Z,3.95
2022-11-21T12:20:53.510Z,0.98
2022-11-21T12:23:24.049Z,0.75
2022-11-21T12:25:57.321Z,1.77
2022-11-21T12:28:44.146Z,1.55
2022-11-21T12:31:54.402Z,5.18
2022-11-21T12:34:42.325Z,2.95
2022-11-21T12:37:30.277Z,1.45
2022-11-21T12:40:46.007Z,0.60
2022-11-21T12:43:20.857Z,1.33
2022-11-21T12:46:10.563Z,2.58
2022-11-21T12:49:12.448Z,1.15
2022-11-21T12:52:32.277Z,4.70
2022-11-21T12:55:02.410Z,1.67
2022-11-21T12:58:10.898Z,4.22
2022-11-21T13:01:30.566Z,3.92
2022-11-21T13:04:16.449Z,4.07
2022-11-21T13:06:47.091Z,2.15
2022-11-21T13:09:19.525Z,2.28
2022-11-21T13:12:07.903Z,2.03
2022-11-21T13:14:36.518Z,2.33
2022-11-21T13:17:28.557Z,8.80
2022-11-21T13:20:06.930Z,3.17
2022-11-21T13:22:37.086Z,2.63
2022-11-21T13:25:32.229Z,2.05
2022-11-21T13:28:17.343Z,3.65
2022-11-21T13:30:55.039Z,4.78
2022-11-21T13:33:40.033Z,0.85
2022-11-21T13:36:38.920Z,2.28
2022-11-21T13:39:05.914Z,2.50
2022-11-21T13:41:54.110Z,4.07
2022-11-21T13:44:33.900Z,2.75
2022-11-21T13:47:14.885Z,1.27
2022-11-21T13:49:52.634Z,2.47
2022-11-21T13:52:19.785Z,2.42
2022-11-21T13:55:39.097Z,6.18
2022-11-21T13:58:43.456Z,1.95
2022-11-21T14:01:45.591Z,2.13
2022-11-21T14:04:49.484Z,2.13
2022-11-21T14:07:35.677Z,1.10
2022-11-21T14:12:50.355Z,1.80
2022-11-21T14:15:21.530Z,6.50
2022-11-21T14:17:59.916Z,2.45
2022-11-21T14:20:35.716Z,1.77
2022-11-21T14:25:50.649Z,1.88
2022-11-21T14:28:35.359Z,4.35
2022-11-21T14:31:08.375Z,7.40
2022-11-21T14:33:37.915Z,3.03
2022-11-21T14:36:13.801Z,3.45
2022-11-21T14:41:27.313Z,4.03
2022-11-21T14:44:01.412Z,4.80
2022-11-21T14:46:38.295Z,2.08
2022-11-21T14:49:17.465Z,1.95
2022-11-21T14:52:14.458Z,1.30
2022-11-21T14:57:53.669Z,1.88
2022-11-21T15:03:23.844Z,3.15
2022-11-21T15:06:05.004Z,4.15
2022-11-21T15:11:26.241Z,5.43
2022-11-21T15:14:17.354Z,3.30
2022-11-21T15:16:51.653Z,2.88
2022-11-21T15:19:29.389Z,3.50
2022-11-21T15:21:59.676Z,6.05
2022-11-21T15:24:31.582Z,4.95
2022-11-21T15:26:59.725Z,2.72
2022-11-21T15:29:32.563Z,5.95
2022-11-21T15:32:09.796Z,7.75
2022-11-21T15:34:41.345Z,3.50
2022-11-21T15:37:18.785Z,4.20
2022-11-21T15:39:50.007Z,4.05
2022-11-21T15:42:34.792Z,3.47
2022-11-21T15:45:19.741Z,3.47
2022-11-21T15:47:50.137Z,6.40
2022-11-21T15:50:17.560Z,3.05
2022-11-21T15:52:50.627Z,5.82
2022-11-21T15:55:31.419Z,4.15
2022-11-21T15:57:58.529Z,2.63
2022-11-21T16:00:25.638Z,3.00
2022-11-21T16:02:52.748Z,5.38
2022-11-21T16:05:19.805Z,6.60
2022-11-21T16:07:48.613Z,4.93
2022-11-21T16:10:22.667Z,3.38
2022-11-21T16:12:54.486Z,2.00
2022-11-21T16:15:21.834Z,8.43
2022-11-21T16:17:48.926Z,3.58
2022-11-21T16:20:16.391Z,5.55
2022-11-21T16:22:47.739Z,4.07
2022-11-21T16:25:16.055Z,7.15
2022-11-21T16:27:43.441Z,3.75
2022-11-21T16:30:11.214Z,5.60
2022-11-21T16:32:39.760Z,2.47
2022-11-21T16:35:07.670Z,3.72
2022-11-21T16:37:34.806Z,6.40
2022-11-21T16:40:02.208Z,4.70
2022-11-21T16:42:29.773Z,2.75
2022-11-21T16:44:57.902Z,2.55
2022-11-21T16:47:25.206Z,3.53
2022-11-21T16:49:52.877Z,5.25
2022-11-21T16:52:20.092Z,2.45
2022-11-21T16:54:47.764Z,2.45
2022-11-21T16:57:17.945Z,3.65
2022-11-21T16:59:45.149Z,3.42
2022-11-21T17:02:12.673Z,3.38
2022-11-21T17:04:40.205Z,4.40
2022-11-21T17:07:08.713Z,3.10
2022-11-21T17:09:36.079Z,3.80
2022-11-21T17:12:03.613Z,3.50
2022-11-21T17:14:31.515Z,6.30
2022-11-21T17:17:02.652Z,8.85
2022-11-21T17:19:31.555Z,4.53
2022-11-21T17:22:00.908Z,6.82
2022-11-21T17:24:29.429Z,6.72
2022-11-21T17:27:00.664Z,4.72
2022-11-21T17:29:32.027Z,4.82
2022-11-21T17:32:01.707Z,4.03
2022-11-21T17:34:33.045Z,5.82
2022-11-21T17:37:02.051Z,4.80
2022-11-21T17:39:30.502Z,7.35
2022-11-21T17:42:02.213Z,6.50
2022-11-21T17:44:31.432Z,7.97
2022-11-21T17:47:02.355Z,10.50
2022-11-21T17:49:37.381Z,13.73
2022-11-21T17:52:07.081Z,12.25
2022-11-21T17:54:34.993Z,10.20
2022-11-21T17:57:07.830Z,14.35
2022-11-21T17:59:35.807Z,13.32
2022-11-21T18:02:22.980Z,17.73
2022-11-21T18:04:50.852Z,13.57
2022-11-21T18:07:18.768Z,14.68
2022-11-21T18:09:46.396Z,12.50
2022-11-21T18:12:14.398Z,16.52
2022-11-21T18:14:42.163Z,22.17
2022-11-21T18:17:11.679Z,27.20
2022-11-21T18:19:41.181Z,16.27
2022-11-21T18:22:09.059Z,16.03
2022-11-21T18:24:37.523Z,15.27
2022-11-21T18:27:07.083Z,17.73
2022-11-21T18:29:36.665Z,18.45
2022-11-21T18:32:06.525Z,20.20
2022-11-21T18:34:35.969Z,18.08
2022-11-21T18:37:07.561Z,19.20
2022-11-21T18:39:35.353Z,19.60
2022-11-21T18:42:03.351Z,16.63
2022-11-21T18:44:31.520Z,14.35
2022-11-21T18:47:01.219Z,16.33
2022-11-21T18:49:29.173Z,16.85
2022-11-21T18:51:58.540Z,14.52
2022-11-21T18:54:27.460Z,21.42
2022-11-21T18:56:57.476Z,19.83
2022-11-21T18:59:25.356Z,17.60
2022-11-21T19:01:53.223Z,17.67
2022-11-21T19:04:23.478Z,21.53
2022-11-21T19:06:51.344Z,24.35
2022-11-21T19:09:19.592Z,23.67
2022-11-21T19:11:48.724Z,23.60
2022-11-21T19:14:16.820Z,23.85
2022-11-21T19:16:45.968Z,19.52
2022-11-21T19:22:06.099Z,15.93
2022-11-21T19:24:34.073Z,13.50
2022-11-21T19:27:04.779Z,13.73
2022-11-21T19:29:34.047Z,16.30
2022-11-21T19:32:02.304Z,19.73
2022-11-21T19:34:32.254Z,17.15
2022-11-21T19:37:00.606Z,18.53
2022-11-21T19:39:32.786Z,15.60
2022-11-21T19:42:00.425Z,15.53
2022-11-21T19:44:34.550Z,15.57
2022-11-21T19:47:05.727Z,15.23
2022-11-21T19:49:33.547Z,12.07
2022-11-21T19:52:01.866Z,17.70
2022-11-21T19:54:29.660Z,20.67
2022-11-21T19:56:57.955Z,17.90
2022-11-21T19:59:25.906Z,15.87
2022-11-21T20:01:54.031Z,17.43
2022-11-21T20:04:22.167Z,16.67
2022-11-21T20:06:51.636Z,16.13
2022-11-21T20:09:22.438Z,13.73
2022-11-21T20:11:53.440Z,16.57
2022-11-21T20:14:23.447Z,17.07
2022-11-21T20:16:53.532Z,15.43
2022-11-21T20:19:24.114Z,16.53
2022-11-21T20:21:52.925Z,16.33
2022-11-21T20:24:22.048Z,18.47
2022-11-21T20:26:52.220Z,20.40
2022-11-21T20:29:20.099Z,19.60
2022-11-21T20:31:48.781Z,16.57
2022-11-21T20:34:19.471Z,19.20
2022-11-21T20:36:47.490Z,24.27
2022-11-21T20:39:19.025Z,20.83
2022-11-21T20:41:53.047Z,18.00
2022-11-21T20:47:14.263Z,16.97
2022-11-21T20:49:42.385Z,17.07
2022-11-21T20:54:59.268Z,19.60
2022-11-21T20:57:29.881Z,19.50
2022-11-21T20:59:57.852Z,22.73
2022-11-21T21:02:25.915Z,20.80
2022-11-21T21:04:57.151Z,15.87
2022-11-21T21:07:24.664Z,16.53
2022-11-21T21:09:53.516Z,18.80
2022-11-21T21:12:20.786Z,20.87
2022-11-21T21:14:48.216Z,19.97
2022-11-21T21:17:15.436Z,19.73
2022-11-21T21:19:42.623Z,19.10
2022-11-21T21:22:09.856Z,17.87
2022-11-21T21:24:37.748Z,19.43
2022-11-21T21:27:05.113Z,20.73
2022-11-21T21:29:32.649Z,16.07
2022-11-21T21:32:00.029Z,19.13
2022-11-21T21:34:27.422Z,17.53
2022-11-21T21:36:54.646Z,15.00
2022-11-21T21:39:21.792Z,18.77
2022-11-21T21:41:48.962Z,19.53
2022-11-21T21:44:16.699Z,18.23
2022-11-21T21:46:44.544Z,13.80
2022-11-21T21:49:12.217Z,20.23
2022-11-21T21:51:40.109Z,19.47
2022-11-21T21:54:07.480Z,14.90
2022-11-21T21:56:34.532Z,22.27
2022-11-21T21:59:01.652Z,18.13
2022-11-21T22:01:31.873Z,21.07
2022-11-21T22:04:04.699Z,18.40
2022-11-21T22:06:34.277Z,18.10
2022-11-21T22:09:02.724Z,19.17
2022-11-21T22:11:35.421Z,21.43
2022-11-21T22:14:05.709Z,22.70
2022-11-21T22:16:33.459Z,25.40
2022-11-21T22:19:00.526Z,28.90
2022-11-21T22:21:33.743Z,30.53
2022-11-21T22:24:31.024Z,27.77
2022-11-21T22:26:58.309Z,27.77
2022-11-21T22:29:25.896Z,23.60
2022-11-21T22:31:52.975Z,30.60
2022-11-21T22:34:20.214Z,28.27
2022-11-21T22:36:47.567Z,32.60
2022-11-21T22:39:15.821Z,28.27
2022-11-21T22:41:43.105Z,29.87
2022-11-21T22:44:10.365Z,33.20
2022-11-21T22:46:37.564Z,30.93
2022-11-21T22:49:04.581Z,31.77
2022-11-21T22:51:31.696Z,32.50
2022-11-21T22:53:58.745Z,30.70
2022-11-21T22:56:27.284Z,29.17
2022-11-21T22:58:57.497Z,31.93
2022-11-21T23:01:26.286Z,33.50
2022-11-21T23:03:55.611Z,32.60
2022-11-21T23:06:25.392Z,35.70
2022-11-21T23:08:54.509Z,28.37
2022-11-21T23:11:26.312Z,32.77
2022-11-21T23:13:54.272Z,28.70
2022-11-21T23:16:22.425Z,35.00
2022-11-21T23:18:52.318Z,38.20
2022-11-21T23:21:19.402Z,34.73
2022-11-21T23:23:46.533Z,35.80
2022-11-21T23:26:14.270Z,39.27
2022-11-21T23:28:41.307Z,34.73
2022-11-21T23:31:09.858Z,33.80
2022-11-21T23:33:36.922Z,34.07
2022-11-21T23:36:04.568Z,32.50
2022-11-21T23:38:31.772Z,34.67
2022-11-21T23:40:58.811Z,38.43
2022-11-21T23:43:26.027Z,32.80
2022-11-21T23:45:54.330Z,31.17
2022-11-21T23:48:24.121Z,34.83
2022-11-21T23:50:52.217Z,32.93
2022-11-21T23:53:21.602Z,33.27
2022-11-21T23:55:49.171Z,35.75
2022-11-21T23:58:16.762Z,31.33
